createdAt,value
2019-06-10T00:00:42.104Z,100376.34
2019-06-10T00:03:12.020Z,100367.90
2019-06-10T00:05:41.797Z,100363.48
2019-06-10T00:08:12.170Z,100356.91
2019-06-10T00:10:42.100Z,100308.22
2019-06-10T00:13:12.257Z,100354.38
2019-06-10T00:15:41.590Z,100349.95
2019-06-10T00:18:38.339Z,100345.13
2019-06-10T00:20:41.553Z,100348.33
2019-06-10T00:23:12.233Z,100342.22
2019-06-10T00:25:41.969Z,100335.58
2019-06-10T00:28:11.947Z,100333.43
2019-06-10T00:30:41.751Z,100329.94
2019-06-10T00:33:12.435Z,100329.13
2019-06-10T00:35:41.681Z,100327.12
2019-06-10T00:38:13.748Z,100324.16
2019-06-10T00:40:42.042Z,100322.00
2019-06-10T00:43:13.403Z,100323.34
2019-06-10T00:45:42.143Z,100320.66
2019-06-10T00:48:24.369Z,100320.20
2019-06-10T00:50:42.139Z,100316.66
2019-06-10T00:53:14.058Z,100202.78
2019-06-10T00:55:42.495Z,100310.37
2019-06-10T00:58:13.958Z,100308.09
2019-06-10T01:00:42.951Z,100306.35
2019-06-10T01:03:15.133Z,100300.19
2019-06-10T01:05:43.108Z,100298.03
2019-06-10T01:08:15.587Z,100292.80
2019-06-10T01:10:44.164Z,100284.36
2019-06-10T01:13:15.408Z,100287.97
2019-06-10T01:15:44.419Z,100281.69
2019-06-10T01:18:33.695Z,100277.67
2019-06-10T01:20:44.372Z,100273.80
2019-06-10T01:23:15.660Z,100269.47
2019-06-10T01:25:44.391Z,100274.42
2019-06-10T01:28:16.830Z,100270.46
2019-06-10T01:30:44.353Z,100269.70
2019-06-10T01:33:14.853Z,100262.20
2019-06-10T01:35:44.362Z,100256.45
2019-06-10T01:38:16.262Z,100258.19
2019-06-10T01:40:51.667Z,100255.98
2019-06-10T01:43:21.460Z,100253.83
2019-06-10T01:45:51.211Z,100253.53
2019-06-10T01:48:20.971Z,100259.09
2019-06-10T01:50:51.290Z,100252.12
2019-06-10T01:53:22.099Z,100246.01
2019-06-10T01:55:52.006Z,100247.46
2019-06-10T01:58:23.607Z,100248.45
2019-06-10T02:01:23.540Z,100245.36
2019-06-10T02:03:52.645Z,100237.45
2019-06-10T02:06:25.456Z,100238.88
2019-06-10T02:08:55.209Z,100233.24
2019-06-10T02:11:24.332Z,100234.23
2019-06-10T02:13:53.449Z,100224.98
2019-06-10T02:16:23.982Z,100225.09
2019-06-10T02:19:00.155Z,100217.19
2019-06-10T02:21:24.567Z,100222.53
2019-06-10T02:23:53.719Z,100209.69
2019-06-10T02:26:23.723Z,100212.92
2019-06-10T02:28:52.884Z,100209.42
2019-06-10T02:31:30.259Z,100214.42
2019-06-10T02:33:52.838Z,100208.61
2019-06-10T02:36:30.892Z,100202.86
2019-06-10T02:38:54.013Z,100202.45
2019-06-10T02:41:31.275Z,100208.20
2019-06-10T02:43:54.243Z,100204.31
2019-06-10T02:46:30.797Z,100202.67
2019-06-10T02:48:54.619Z,99952.44
2019-06-10T02:51:30.615Z,100181.00
2019-06-10T02:53:54.842Z,100176.31
2019-06-10T02:56:29.903Z,100172.36
2019-06-10T02:58:55.392Z,100179.09
2019-06-10T03:01:32.125Z,100180.03
2019-06-10T03:03:55.391Z,100172.02
2019-06-10T03:06:32.452Z,100170.27
2019-06-10T03:08:55.596Z,100169.05
2019-06-10T03:11:29.681Z,100170.44
2019-06-10T03:13:55.593Z,100167.88
2019-06-10T03:16:35.504Z,100163.48
2019-06-10T03:19:04.633Z,100157.87
2019-06-10T03:21:33.799Z,100159.27
2019-06-10T03:24:02.960Z,100154.38
2019-06-10T03:26:32.417Z,100153.10
2019-06-10T03:29:02.689Z,100152.75
2019-06-10T03:31:40.405Z,100151.00
2019-06-10T03:34:04.995Z,100154.14
2019-06-10T03:36:33.933Z,100149.67
2019-06-10T03:39:03.643Z,100154.49
2019-06-10T03:41:32.777Z,100152.23
2019-06-10T03:44:02.546Z,100154.44
2019-06-10T03:46:32.834Z,100152.23
2019-06-10T03:49:03.178Z,100152.23
2019-06-10T03:51:33.363Z,100147.81
2019-06-10T03:54:02.682Z,100134.45
2019-06-10T03:56:32.298Z,100137.95
2019-06-10T03:59:02.790Z,100134.34
2019-06-10T04:01:33.351Z,100132.55
2019-06-10T04:04:02.750Z,100131.22
2019-06-10T04:06:33.631Z,100124.07
2019-06-10T04:09:02.965Z,100127.61
2019-06-10T04:11:34.913Z,100135.69
2019-06-10T04:14:02.956Z,100133.13
2019-06-10T04:16:32.804Z,100125.69
2019-06-10T04:19:02.719Z,100129.34
2019-06-10T04:21:32.652Z,100123.53
2019-06-10T04:24:02.349Z,100122.55
2019-06-10T04:26:32.706Z,100127.78
2019-06-10T04:29:02.593Z,100122.79
2019-06-10T04:31:33.098Z,100121.80
2019-06-10T04:34:03.146Z,100120.79
2019-06-10T04:36:33.255Z,100114.87
2019-06-10T04:39:03.344Z,100115.60
2019-06-10T04:41:32.644Z,100124.73
2019-06-10T04:44:02.657Z,100124.87
2019-06-10T04:46:32.494Z,100122.44
2019-06-10T04:49:02.720Z,100119.13
2019-06-10T04:51:32.904Z,100114.84
2019-06-10T04:54:03.034Z,100107.92
2019-06-10T04:56:33.449Z,100107.28
2019-06-10T04:59:03.263Z,100103.96
2019-06-10T05:01:33.522Z,100097.53
2019-06-10T05:04:03.307Z,100101.88
2019-06-10T05:06:32.925Z,100106.24
2019-06-10T05:09:04.169Z,100102.17
2019-06-10T05:11:33.256Z,100100.08
2019-06-10T05:14:02.871Z,100103.75
2019-06-10T05:16:35.539Z,100102.41
2019-06-10T05:19:03.845Z,100104.16
2019-06-10T05:21:33.727Z,100098.80
2019-06-10T05:24:03.074Z,100097.06
2019-06-10T05:26:33.627Z,100099.73
2019-06-10T05:29:03.337Z,100106.89
2019-06-10T05:31:35.144Z,100107.39
2019-06-10T05:34:03.477Z,100106.11
2019-06-10T05:36:34.783Z,100111.52
2019-06-10T05:39:04.708Z,100106.75
2019-06-10T05:41:35.111Z,100103.68
2019-06-10T05:44:04.445Z,100095.72
2019-06-10T05:46:35.034Z,100089.91
2019-06-10T05:49:04.260Z,100096.99
2019-06-10T05:51:35.282Z,100091.58
2019-06-10T05:54:04.323Z,100091.58
2019-06-10T05:56:34.248Z,100091.18
2019-06-10T05:59:04.476Z,100091.70
2019-06-10T06:01:38.205Z,100091.64
2019-06-10T06:04:04.557Z,100095.94
2019-06-10T06:06:35.314Z,100090.78
2019-06-10T06:09:06.373Z,100080.66
2019-06-10T06:11:35.498Z,100079.47
2019-06-10T06:14:04.730Z,100084.95
2019-06-10T06:16:36.068Z,100079.75
2019-06-10T06:19:04.760Z,100078.91
2019-06-10T06:21:40.250Z,100074.37
2019-06-10T06:24:05.175Z,100063.12
2019-06-10T06:26:37.913Z,100066.54
2019-06-10T06:29:05.424Z,100060.08
2019-06-10T06:31:36.149Z,100059.97
2019-06-10T06:34:05.772Z,100064.59
2019-06-10T06:36:36.671Z,100057.08
2019-06-10T06:39:12.893Z,100055.69
2019-06-10T06:41:42.771Z,100055.13
2019-06-10T06:44:12.948Z,100052.28
2019-06-10T06:46:43.032Z,100038.52
2019-06-10T06:49:12.976Z,100040.73
2019-06-10T06:51:51.784Z,100037.45
2019-06-10T06:54:13.051Z,100037.77
2019-06-10T06:56:43.738Z,100047.39
2019-06-10T06:59:13.449Z,100057.56
2019-06-10T07:01:44.089Z,100047.45
2019-06-10T07:04:13.883Z,100048.41
2019-06-10T07:06:43.528Z,100043.08
2019-06-10T07:09:13.471Z,100039.96
2019-06-10T07:11:45.301Z,100038.36
2019-06-10T07:14:14.807Z,100048.54
2019-06-10T07:16:46.332Z,100053.95
2019-06-10T07:19:14.893Z,100047.30
2019-06-10T07:22:02.366Z,100050.60
2019-06-10T07:24:14.933Z,100035.98
2019-06-10T07:26:51.114Z,100046.97
2019-06-10T07:29:14.981Z,100047.05
2019-06-10T07:31:47.877Z,100045.45
2019-06-10T07:34:15.353Z,100046.51
2019-06-10T07:36:45.496Z,99888.20
2019-06-10T07:39:15.327Z,100036.55
2019-06-10T07:42:04.834Z,100038.81
2019-06-10T07:44:34.912Z,100040.55
2019-06-10T07:47:04.927Z,100035.94
2019-06-10T07:49:35.328Z,100035.90
2019-06-10T07:52:15.519Z,99986.43
2019-06-10T07:54:37.502Z,100030.82
2019-06-10T07:57:06.838Z,100024.96
2019-06-10T07:59:35.941Z,100026.61
2019-06-10T08:02:05.097Z,100018.22
2019-06-10T08:04:35.246Z,100025.36
2019-06-10T08:07:05.151Z,100022.27
2019-06-10T08:09:35.785Z,100018.77
2019-06-10T08:12:06.043Z,100019.38
2019-06-10T08:14:35.448Z,100012.83
2019-06-10T08:17:04.655Z,100010.05
2019-06-10T08:19:37.807Z,100014.06
2019-06-10T08:22:04.799Z,100011.75
2019-06-10T08:24:35.323Z,100011.78
2019-06-10T08:27:04.510Z,100013.18
2019-06-10T08:29:33.660Z,100010.29
2019-06-10T08:32:03.432Z,100010.73
2019-06-10T08:34:33.083Z,100013.02
2019-06-10T08:37:04.347Z,100010.45
2019-06-10T08:39:33.612Z,100012.30
2019-06-10T08:42:03.259Z,100007.67
2019-06-10T08:44:32.853Z,99997.91
2019-06-10T08:47:03.065Z,100004.30
2019-06-10T08:49:32.807Z,99994.80
2019-06-10T08:52:02.838Z,99997.30
2019-06-10T08:54:32.514Z,99996.73
2019-06-10T08:57:04.374Z,99990.53
2019-06-10T08:59:33.224Z,99980.25
2019-06-10T09:02:03.126Z,99975.53
2019-06-10T09:04:33.080Z,99980.50
2019-06-10T09:07:04.176Z,99976.09
2019-06-10T09:09:33.684Z,99976.91
2019-06-10T09:12:03.633Z,99977.50
2019-06-10T09:14:32.980Z,99974.96
2019-06-10T09:17:03.467Z,99977.90
2019-06-10T09:19:33.309Z,99969.09
2019-06-10T09:22:03.437Z,99974.47
2019-06-10T09:24:33.121Z,99969.63
2019-06-10T09:27:02.915Z,99971.65
2019-06-10T09:29:32.876Z,99980.17
2019-06-10T09:32:02.315Z,99983.56
2019-06-10T09:34:33.067Z,99947.86
2019-06-10T09:37:03.563Z,99982.74
2019-06-10T09:39:33.354Z,99979.09
2019-06-10T09:42:06.363Z,99968.08
2019-06-10T09:44:34.108Z,99968.08
2019-06-10T09:47:04.815Z,99964.08
2019-06-10T09:49:34.036Z,99957.31
2019-06-10T09:52:03.600Z,99953.76
2019-06-10T09:54:33.570Z,99946.31
2019-06-10T09:57:03.400Z,99957.05
2019-06-10T09:59:56.140Z,99945.23
2019-06-10T10:02:22.508Z,99949.19
2019-06-10T10:04:57.712Z,99947.50
2019-06-10T10:07:22.762Z,99928.42
2019-06-10T10:09:57.243Z,99931.97
2019-06-10T10:12:24.487Z,99940.13
2019-06-10T10:14:56.210Z,99945.53
2019-06-10T10:17:24.459Z,99941.08
2019-06-10T10:19:56.728Z,99933.00
2019-06-10T10:22:24.434Z,99930.02
2019-06-10T10:24:56.466Z,99922.73
2019-06-10T10:27:24.402Z,99926.56
2019-06-10T10:29:56.961Z,99925.95
2019-06-10T10:32:24.450Z,99930.14
2019-06-10T10:34:56.409Z,99922.00
2019-06-10T10:37:24.385Z,99924.47
2019-06-10T10:39:56.286Z,99933.81
2019-06-10T10:42:24.382Z,99930.14
2019-06-10T10:44:58.604Z,99926.95
2019-06-10T10:47:27.505Z,99932.46
2019-06-10T10:49:56.795Z,99920.88
2019-06-10T10:52:26.553Z,99924.82
2019-06-10T10:54:55.937Z,99927.78
2019-06-10T10:57:24.988Z,99923.06
2019-06-10T10:59:56.165Z,99921.72
2019-06-10T11:02:25.022Z,99917.84
2019-06-10T11:04:56.842Z,99919.45
2019-06-10T11:07:24.953Z,99925.79
2019-06-10T11:09:56.686Z,99922.05
2019-06-10T11:12:26.063Z,99927.91
2019-06-10T11:15:00.432Z,99924.63
2019-06-10T11:17:26.062Z,99920.44
2019-06-10T11:19:55.940Z,99912.33
2019-06-10T11:22:25.061Z,99907.89
2019-06-10T11:24:56.177Z,99904.10
2019-06-10T11:27:25.033Z,99898.88
2019-06-10T11:29:57.385Z,99900.22
2019-06-10T11:32:25.030Z,99893.44
2019-06-10T11:34:56.957Z,99904.44
2019-06-10T11:37:25.412Z,99902.63
2019-06-10T11:39:55.043Z,99907.34
2019-06-10T11:42:24.491Z,99902.53
2019-06-10T11:44:55.406Z,99889.09
2019-06-10T11:47:25.261Z,99883.66
2019-06-10T11:49:55.352Z,99889.58
2019-06-10T11:52:25.499Z,99887.13
2019-06-10T11:55:05.554Z,99892.30
2019-06-10T11:57:25.645Z,99883.50
2019-06-10T11:59:55.974Z,99883.95
2019-06-10T12:02:27.295Z,99879.75
2019-06-10T12:04:58.888Z,99873.20
2019-06-10T12:07:27.336Z,99877.47
2019-06-10T12:09:59.084Z,99869.76
2019-06-10T12:12:27.455Z,99870.77
2019-06-10T12:14:59.535Z,99855.83
2019-06-10T12:17:41.629Z,99858.50
2019-06-10T12:20:01.417Z,99860.41
2019-06-10T12:22:29.132Z,99863.52
2019-06-10T12:25:26.381Z,99857.23
2019-06-10T12:27:29.111Z,99847.06
2019-06-10T12:29:59.923Z,99840.73
2019-06-10T12:32:29.141Z,99832.88
2019-06-10T12:34:59.668Z,99833.21
2019-06-10T12:37:28.882Z,99829.95
2019-06-10T12:39:59.538Z,99821.22
2019-06-10T12:42:29.048Z,99814.85
2019-06-10T12:44:59.362Z,99809.69
2019-06-10T12:47:29.066Z,99811.41
2019-06-10T12:49:59.135Z,99810.55
2019-06-10T12:52:28.376Z,99812.13
2019-06-10T12:54:57.604Z,99813.14
2019-06-10T12:57:26.753Z,99813.95
2019-06-10T12:59:56.330Z,99812.39
2019-06-10T13:02:31.279Z,99805.10
2019-06-10T13:04:57.557Z,99805.23
2019-06-10T13:07:27.172Z,99800.91
2019-06-10T13:09:57.770Z,99795.97
2019-06-10T13:12:26.992Z,99792.69
2019-06-10T13:14:56.339Z,99788.82
2019-06-10T13:17:25.446Z,99782.27
2019-06-10T13:19:54.945Z,99784.40
2019-06-10T13:22:24.599Z,99778.72
2019-06-10T13:24:53.814Z,99775.59
2019-06-10T13:27:22.934Z,99766.59
2019-06-10T13:29:53.196Z,99762.02
2019-06-10T13:32:22.532Z,99761.56
2019-06-10T13:34:52.747Z,99752.62
2019-06-10T13:37:22.816Z,99761.81
2019-06-10T13:39:52.486Z,99766.30
2019-06-10T13:42:22.775Z,99759.52
2019-06-10T13:44:53.017Z,99752.80
2019-06-10T13:47:25.971Z,99753.00
2019-06-10T13:49:53.319Z,99746.20
2019-06-10T13:52:23.349Z,99743.25
2019-06-10T13:54:52.767Z,99739.18
2019-06-10T13:57:23.020Z,99737.45
2019-06-10T13:59:52.338Z,99741.30
2019-06-10T14:02:24.641Z,99741.36
2019-06-10T14:04:53.169Z,99739.77
2019-06-10T14:07:23.459Z,99744.07
2019-06-10T14:09:52.564Z,99737.55
2019-06-10T14:12:23.113Z,99734.09
2019-06-10T14:14:53.330Z,99723.61
2019-06-10T14:17:22.921Z,99714.57
2019-06-10T14:19:52.166Z,99718.05
2019-06-10T14:22:22.861Z,99719.54
2019-06-10T14:24:53.045Z,99725.37
2019-06-10T14:27:24.588Z,99725.48
2019-06-10T14:29:53.811Z,99726.11
2019-06-10T14:32:22.933Z,99731.52
2019-06-10T14:34:52.671Z,99730.39
2019-06-10T14:37:34.937Z,99726.71
2019-06-10T14:39:53.038Z,99721.20
2019-06-10T14:42:23.048Z,99723.59
2019-06-10T14:44:52.711Z,99726.45
2019-06-10T14:47:23.054Z,99727.81
2019-06-10T14:49:53.009Z,99734.28
2019-06-10T14:52:22.794Z,99740.22
2019-06-10T14:54:53.177Z,99738.88
2019-06-10T14:57:22.966Z,99744.43
2019-06-10T14:59:53.192Z,99748.81
2019-06-10T15:02:22.655Z,99746.62
2019-06-10T15:04:53.142Z,99751.66
2019-06-10T15:07:23.679Z,99754.99
2019-06-10T15:09:53.201Z,99749.70
2019-06-10T15:12:22.838Z,99748.22
2019-06-10T15:14:52.248Z,99744.66
2019-06-10T15:17:21.358Z,99735.08
2019-06-10T15:19:52.904Z,99730.03
2019-06-10T15:22:23.632Z,99724.86
2019-06-10T15:24:53.260Z,99721.65
2019-06-10T15:27:29.798Z,99718.20
2019-06-10T15:29:53.342Z,99721.28
2019-06-10T15:32:33.750Z,99724.97
2019-06-10T15:34:53.307Z,99722.75
2019-06-10T15:37:24.104Z,99710.08
2019-06-10T15:39:53.601Z,99713.93
2019-06-10T15:42:22.759Z,99703.09
2019-06-10T15:44:53.481Z,99698.05
2019-06-10T15:47:26.474Z,99705.80
2019-06-10T15:49:53.720Z,99705.39
2019-06-10T15:52:25.117Z,99692.70
2019-06-10T15:54:53.783Z,99692.20
2019-06-10T15:57:38.539Z,99703.67
2019-06-10T15:59:54.668Z,99703.67
2019-06-10T16:02:25.622Z,99687.94
2019-06-10T16:04:54.784Z,99687.94
2019-06-10T16:07:25.630Z,99689.67
2019-06-10T16:09:54.977Z,99687.08
2019-06-10T16:12:26.652Z,99694.59
2019-06-10T16:14:55.140Z,99699.16
2019-06-10T16:17:24.271Z,99696.20
2019-06-10T16:19:53.520Z,99694.67
2019-06-10T16:22:24.939Z,99693.70
2019-06-10T16:24:53.506Z,99693.32
2019-06-10T16:27:40.354Z,99693.32
2019-06-10T16:29:53.505Z,99691.97
2019-06-10T16:32:23.637Z,99691.84
2019-06-10T16:34:53.570Z,99696.07
2019-06-10T16:37:25.775Z,99695.83
2019-06-10T16:39:55.456Z,99689.67
2019-06-10T16:42:26.190Z,99692.88
2019-06-10T16:44:55.446Z,99686.59
2019-06-10T16:47:27.107Z,99687.12
2019-06-10T16:49:55.494Z,99688.92
2019-06-10T16:52:26.090Z,99688.92
2019-06-10T16:54:58.870Z,99688.83
2019-06-10T16:57:28.073Z,99680.45
2019-06-10T16:59:57.217Z,99685.87
2019-06-10T17:02:26.888Z,99685.87
2019-06-10T17:04:58.363Z,99668.75
2019-06-10T17:07:27.055Z,99676.41
2019-06-10T17:09:56.195Z,99669.39
2019-06-10T17:12:27.473Z,99676.14
2019-06-10T17:14:56.188Z,99679.58
2019-06-10T17:17:26.973Z,99679.47
2019-06-10T17:19:56.206Z,99679.47
2019-06-10T17:22:27.392Z,99685.26
2019-06-10T17:24:56.209Z,99683.89
2019-06-10T17:27:26.694Z,99695.87
2019-06-10T17:29:59.344Z,99693.30
2019-06-10T17:32:28.514Z,99690.70
2019-06-10T17:34:57.621Z,99687.61
2019-06-10T17:37:26.923Z,99686.46
2019-06-10T17:39:56.040Z,99690.00
2019-06-10T17:42:30.615Z,99689.63
2019-06-10T17:44:56.040Z,99692.94
2019-06-10T17:47:27.700Z,99696.07
2019-06-10T17:49:56.138Z,99697.31
2019-06-10T17:52:25.968Z,99710.16
2019-06-10T17:54:55.218Z,99713.56
2019-06-10T17:57:26.552Z,99713.19
2019-06-10T17:59:55.216Z,99720.02
2019-06-10T18:02:25.847Z,99714.85
2019-06-10T18:04:55.308Z,99728.58
2019-06-10T18:07:25.659Z,99731.92
2019-06-10T18:09:54.770Z,99726.30
2019-06-10T18:12:23.897Z,99725.06
2019-06-10T18:14:53.059Z,99724.81
2019-06-10T18:17:23.808Z,99735.45
2019-06-10T18:20:13.591Z,99737.61
2019-06-10T18:22:42.897Z,99743.19
2019-06-10T18:25:12.432Z,99738.52
2019-06-10T18:27:41.525Z,99732.73
2019-06-10T18:30:14.163Z,99720.50
2019-06-10T18:32:42.974Z,99730.25
2019-06-10T18:35:14.349Z,99718.39
2019-06-10T18:37:43.561Z,99724.66
2019-06-10T18:40:14.602Z,99720.81
2019-06-10T18:42:46.106Z,99723.41
2019-06-10T18:45:17.422Z,99714.34
2019-06-10T18:47:46.591Z,99712.52
2019-06-10T18:50:16.345Z,99715.97
2019-06-10T18:52:45.564Z,99713.20
2019-06-10T18:55:19.055Z,99704.25
2019-06-10T18:57:53.059Z,99695.03
2019-06-10T19:00:23.117Z,99685.93
2019-06-10T19:03:09.422Z,99686.34
2019-06-10T19:05:28.640Z,99681.37
2019-06-10T19:07:58.858Z,99674.25
2019-06-10T19:10:29.069Z,99678.67
2019-06-10T19:12:58.500Z,99684.16
2019-06-10T19:15:29.512Z,99687.72
2019-06-10T19:17:58.907Z,99688.69
2019-06-10T19:20:28.207Z,99686.10
2019-06-10T19:22:57.341Z,99688.80
2019-06-10T19:25:30.903Z,99682.27
2019-06-10T19:28:00.539Z,99683.67
2019-06-10T19:30:33.496Z,99688.98
2019-06-10T19:33:02.531Z,99693.81
2019-06-10T19:35:34.789Z,99412.23
2019-06-10T19:38:02.972Z,99689.06
2019-06-10T19:40:34.984Z,99693.78
2019-06-10T19:43:05.737Z,99693.02
2019-06-10T19:45:34.925Z,99696.78
2019-06-10T19:48:04.063Z,99561.28
2019-06-10T19:50:34.869Z,99699.09
2019-06-10T19:53:04.248Z,99702.27
2019-06-10T19:55:35.195Z,99698.14
2019-06-10T19:58:04.420Z,99690.56
2019-06-10T20:00:35.937Z,99691.64
2019-06-10T20:03:05.289Z,99695.52
2019-06-10T20:05:36.131Z,99695.13
2019-06-10T20:08:07.400Z,99692.06
2019-06-10T20:10:36.627Z,99693.02
2019-06-10T20:13:05.866Z,99691.30
2019-06-10T20:15:37.456Z,99690.33
2019-06-10T20:18:06.550Z,99680.53
2019-06-10T20:20:36.120Z,99687.07
2019-06-10T20:23:08.547Z,99685.67
2019-06-10T20:25:36.354Z,99682.30
2019-06-10T20:28:06.971Z,99675.58
2019-06-10T20:30:37.279Z,99673.17
2019-06-10T20:33:07.324Z,99675.38
2019-06-10T20:35:37.469Z,99674.80
2019-06-10T20:38:06.823Z,99677.88
2019-06-10T20:40:36.013Z,99689.03
2019-06-10T20:43:05.190Z,99687.78
2019-06-10T20:45:34.441Z,99692.30
2019-06-10T20:48:03.610Z,99691.62
2019-06-10T20:50:32.810Z,99694.80
2019-06-10T20:53:11.932Z,99685.61
2019-06-10T20:55:42.435Z,99686.28
2019-06-10T20:58:07.086Z,99691.36
2019-06-10T21:00:37.011Z,99686.45
2019-06-10T21:03:06.394Z,99689.03
2019-06-10T21:05:36.056Z,99695.98
2019-06-10T21:08:05.749Z,99697.89
2019-06-10T21:10:36.554Z,99696.34
2019-06-10T21:13:07.018Z,99682.70
2019-06-10T21:15:36.293Z,99682.02
2019-06-10T21:18:05.512Z,99678.09
2019-06-10T21:20:34.674Z,99682.12
2019-06-10T21:23:03.918Z,99685.20
2019-06-10T21:25:33.072Z,99686.35
2019-06-10T21:28:03.070Z,99699.59
2019-06-10T21:30:41.352Z,99698.99
2019-06-10T21:33:03.930Z,99694.02
2019-06-10T21:35:34.112Z,99700.05
2019-06-10T21:38:03.528Z,99706.65
2019-06-10T21:40:33.163Z,99711.81
2019-06-10T21:43:03.077Z,99711.03
2019-06-10T21:45:32.888Z,99704.80
2019-06-10T21:48:02.626Z,99703.13
2019-06-10T21:50:33.469Z,99704.77
2019-06-10T21:53:03.241Z,99691.59
2019-06-10T21:55:33.161Z,99690.44
2019-06-10T21:58:03.832Z,99694.08
2019-06-10T22:01:03.199Z,99705.30
2019-06-10T22:03:23.162Z,99705.56
2019-06-10T22:05:51.644Z,99706.72
2019-06-10T22:08:20.851Z,99697.50
2019-06-10T22:10:50.114Z,99699.58
2019-06-10T22:13:19.211Z,99694.17
2019-06-10T22:15:48.439Z,99703.77
2019-06-10T22:18:17.534Z,99707.97
2019-06-10T22:20:46.851Z,99716.45
2019-06-10T22:23:16.050Z,99719.57
2019-06-10T22:25:45.174Z,99720.72
2019-06-10T22:28:14.674Z,99717.81
2019-06-10T22:30:45.088Z,99714.52
2019-06-10T22:33:14.197Z,99715.41
2019-06-10T22:35:43.301Z,99700.99
2019-06-10T22:38:13.096Z,99694.23
2019-06-10T22:40:42.844Z,99697.08
2019-06-10T22:43:13.027Z,99700.88
2019-06-10T22:45:42.652Z,99701.47
2019-06-10T22:48:12.222Z,99713.14
2019-06-10T22:50:43.673Z,99712.84
2019-06-10T22:53:12.711Z,99707.55
2019-06-10T22:55:43.322Z,99709.38
2019-06-10T22:58:14.459Z,99722.47
2019-06-10T23:00:43.823Z,99728.39
2019-06-10T23:03:13.232Z,99719.72
2019-06-10T23:05:43.422Z,99710.14
2019-06-10T23:08:12.881Z,99717.00
2019-06-10T23:10:42.967Z,99730.17
2019-06-10T23:13:13.316Z,99733.66
2019-06-10T23:15:43.169Z,99741.58
2019-06-10T23:18:12.857Z,99742.28
2019-06-10T23:20:42.917Z,99742.84
2019-06-10T23:23:12.845Z,99747.41
2019-06-10T23:25:42.993Z,99750.24
2019-06-10T23:28:13.094Z,99746.53
2019-06-10T23:30:43.009Z,99743.65
2019-06-10T23:33:12.718Z,99738.57
2019-06-10T23:35:42.921Z,99749.05
2019-06-10T23:38:13.334Z,99746.99
2019-06-10T23:40:43.151Z,99739.83
2019-06-10T23:43:13.175Z,99741.63
2019-06-10T23:45:42.595Z,99736.35
2019-06-10T23:48:13.352Z,99745.44
2019-06-10T23:50:43.715Z,99743.94
2019-06-10T23:53:13.343Z,99748.58
2019-06-10T23:55:42.935Z,99741.09
2019-06-10T23:58:13.039Z,99741.24
